עמוד ראשי
METAR-TAF:

METAR-TAF

שדות תעופה :

הילו, הוואי, ארצות הברית

קו רוחב: 19-43-20N, קו אורך: 155-03-21W, גובה: 11מטר

תצפית מזג אוויר נוכחית

הדו"ח נערך לפני 33דקות, בשעה 00:53 UTC
רוח 8קשר מכיוון מזרח
טמפרטורת 26 צלסיוס
לחות 74%
לחץ 1017 hPa
ראות: 16.1קילומטר
מעט עננים בגובה 2400רגל
עננים פזורים בגובה 3000רגל
עננים בינוניים בגובה 6000רגל

METAR: PHTO 270053Z 09008KT 10SM FEW024 SCT030 BKN060 26/21 A3003 RMK AO2 SLP166 T02610206

זמן: 15:26 (01:26 UTC)

תחזית

הדו"ח נערך לפני 1 שעות ו 48דקות, בשעה 23:38 UTC
תחזית בתוקף מ 27 ב 00 UTC עד 27 ב 24 UTC
רוח 10קשר מכיוון מזרח
ראות: 10קילומטר
עננים פזורים בגובה 2000רגל
עננים בינוניים בגובה 4000רגל
ממטרים במרחב
מ 27 ב 0700UTC
רוח 6קשר מכיוון מערב/דרום-מערב
ראות: 10קילומטר
עננים פזורים בגובה 2000רגל
עננים בינוניים בגובה 3500רגל
ממטרים במרחב
מ 27 ב 1500UTC
רוח 8קשר מכיוון מערב/דרום-מערב
ראות: 10קילומטר
עננים פזורים בגובה 2000רגל
מעונן בגובה 3500רגל
ממטרי גשם קלים,

TAF: PHTO 262338Z 2700/2724 09010KT P6SM VCSH SCT020 BKN040 FM270700 25006KT P6SM VCSH SCT020 BKN035 FM271500 25008KT P6SM -SHRA SCT020 OVC035

תצפיות ותחזיות מזג אוויר לגבי יותר מ- 4,000 שדות תעופה ברחבי העולם. דוחות METAR ו- TAF.

התחנות הזמינות מסומנות בנקודות צהובות ואדומות על גבי המפה.

העבר את העכבר לנקודה הצבעונית על מנת לראות את שם התחנה.

לאחר מכן, לחץ כדי לראות את תוכן ואת תחזיות מזג האוויר.

כדי לשנות את המפה: לחץ על הכפתורים הירוקים עם הפלוס השחור כדי להתקרב; על הכפתור הירוק עם המקף כדי להתרחק; או בחיצים הירוקים למפות סמוכות.


METAR-TAF: